Time;durP1;ratioP1;P1;durP2;ratioP2;P2;SDS_P1;SDS_P2;PMS_P1;PMS_P2;Temp;Humidity;BMP_temperature;BMP_pressure;BME280_temperature;BME280_humidity;BME280_pressure;Samples;Min_cycle;Max_cycle;Signal;HPM_P1;HPM_P2
2022/03/23 00:02:18;;;;;;;41.60;26.92;;;4.90;99.90;;;;;;5037279;28;20175;-76
2022/03/23 00:04:44;;;;;;;44.95;26.92;;;4.80;99.90;;;;;;5036872;28;20119;-76
2022/03/23 00:07:09;;;;;;;41.45;26.75;;;4.80;99.90;;;;;;5036966;28;20036;-77
2022/03/23 00:09:35;;;;;;;42.00;27.50;;;4.90;99.90;;;;;;5037307;28;20044;-76
2022/03/23 00:12:01;;;;;;;42.67;27.60;;;4.90;99.90;;;;;;5037312;28;20456;-76
2022/03/23 00:14:27;;;;;;;40.05;26.35;;;4.90;99.90;;;;;;5036809;28;20036;-76
2022/03/23 00:16:55;;;;;;;43.05;27.08;;;5.00;99.90;;;;;;5037024;28;20063;-76
2022/03/23 00:19:20;;;;;;;47.60;28.13;;;5.00;99.90;;;;;;5071586;28;20448;-76
2022/03/23 00:21:46;;;;;;;44.70;27.15;;;5.00;99.90;;;;;;5037008;28;20037;-76
2022/03/23 00:24:12;;;;;;;41.35;27.00;;;5.00;99.90;;;;;;5036845;28;20316;-76
2022/03/23 00:26:38;;;;;;;39.63;26.70;;;4.90;99.90;;;;;;5036910;28;20498;-77
2022/03/23 00:29:04;;;;;;;41.05;26.88;;;4.80;99.90;;;;;;5036271;28;20047;-77
2022/03/23 00:31:34;;;;;;;38.60;26.42;;;4.80;99.90;;;;;;5035305;28;20036;-76
2022/03/23 00:34:00;;;;;;;41.03;26.83;;;4.70;99.90;;;;;;5033220;28;20037;-77
2022/03/23 00:36:25;;;;;;;41.25;27.17;;;4.70;99.90;;;;;;5033608;28;20094;-76
2022/03/23 00:38:53;;;;;;;43.30;27.15;;;4.60;99.90;;;;;;5033718;28;20104;-76
2022/03/23 00:41:20;;;;;;;41.70;28.65;;;4.60;99.90;;;;;;5024993;28;20032;-76
2022/03/23 00:43:46;;;;;;;56.53;32.70;;;4.60;99.90;;;;;;5053037;28;20036;-76
2022/03/23 00:46:11;;;;;;;55.83;33.92;;;4.50;99.90;;;;;;5053149;28;20452;-76
2022/03/23 00:48:40;;;;;;;60.78;36.65;;;4.50;99.90;;;;;;5037141;28;20072;-76
2022/03/23 00:51:05;;;;;;;56.45;33.13;;;4.60;99.90;;;;;;5036374;28;20033;-76
2022/03/23 00:53:31;;;;;;;53.83;32.80;;;4.60;99.90;;;;;;5036119;28;20036;-76
2022/03/23 00:55:57;;;;;;;47.03;29.30;;;4.70;99.90;;;;;;5036975;28;20043;-76
2022/03/23 00:58:23;;;;;;;51.92;30.58;;;4.70;99.90;;;;;;5036528;28;20048;-76
2022/03/23 01:00:51;;;;;;;48.50;30.13;;;4.80;99.90;;;;;;5035946;28;20418;-77
2022/03/23 01:03:17;;;;;;;45.40;29.15;;;4.80;99.90;;;;;;5035504;28;20512;-76
2022/03/23 01:05:43;;;;;;;47.33;29.70;;;4.70;99.90;;;;;;5036638;28;20045;-77
2022/03/23 01:08:09;;;;;;;49.85;32.28;;;4.70;99.90;;;;;;5036334;28;20543;-76
2022/03/23 01:10:34;;;;;;;63.03;36.90;;;4.70;99.90;;;;;;5036549;28;20041;-76
2022/03/23 01:13:03;;;;;;;67.45;37.95;;;4.60;99.90;;;;;;5036179;28;20418;-76
2022/03/23 01:15:29;;;;;;;68.20;38.15;;;4.60;99.90;;;;;;5036688;28;20162;-76
2022/03/23 01:18:03;;;;;;;64.95;37.00;;;4.60;99.90;;;;;;5036567;28;20503;-76
2022/03/23 01:20:32;;;;;;;55.17;34.33;;;4.60;99.90;;;;;;5032339;28;20158;-77
2022/03/23 01:22:58;;;;;;;64.07;38.08;;;4.60;99.90;;;;;;5036494;28;20394;-76
2022/03/23 01:25:23;;;;;;;60.50;34.63;;;4.60;99.90;;;;;;5036804;28;20039;-76
2022/03/23 01:27:49;;;;;;;57.25;35.00;;;4.50;99.90;;;;;;5036747;28;20048;-77
2022/03/23 01:30:18;;;;;;;54.33;33.72;;;4.50;99.90;;;;;;5053379;28;20457;-76
2022/03/23 01:32:48;;;;;;;48.67;31.00;;;4.50;99.90;;;;;;5035472;28;20136;-76
2022/03/23 01:35:20;;;;;;;48.78;31.17;;;4.40;99.90;;;;;;5035890;28;20032;-76
2022/03/23 01:37:46;;;;;;;43.05;29.20;;;4.30;99.90;;;;;;5036422;28;20048;-76
2022/03/23 01:40:19;;;;;;;38.97;26.63;;;4.30;99.90;;;;;;5052510;28;20032;-76
2022/03/23 01:42:45;;;;;;;37.35;26.60;;;4.20;99.90;;;;;;5036567;28;20045;-76
2022/03/23 01:45:14;;;;;;;42.00;26.23;;;4.20;99.90;;;;;;5056714;28;20430;-75
2022/03/23 01:47:43;;;;;;;38.65;24.48;;;4.10;99.90;;;;;;5039495;28;20062;-76
2022/03/23 01:50:12;;;;;;;41.95;25.73;;;4.10;99.90;;;;;;5040236;28;20053;-76
2022/03/23 01:52:39;;;;;;;40.20;25.67;;;4.00;99.90;;;;;;5039620;28;20128;-76
2022/03/23 01:55:08;;;;;;;42.22;26.15;;;3.90;99.90;;;;;;5040029;28;20040;-76
2022/03/23 01:57:34;;;;;;;41.03;25.63;;;3.90;99.90;;;;;;5039858;28;20498;-77
2022/03/23 02:00:03;;;;;;;38.20;23.73;;;3.80;99.90;;;;;;5056416;28;20044;-76
2022/03/23 02:02:28;;;;;;;39.50;25.02;;;3.90;99.90;;;;;;5039484;28;20029;-76
2022/03/23 02:04:54;;;;;;;43.92;25.70;;;3.70;99.90;;;;;;5039695;28;20032;-76
2022/03/23 02:07:20;;;;;;;44.30;27.85;;;3.70;99.90;;;;;;5039398;28;20551;-76
2022/03/23 02:09:46;;;;;;;43.97;27.50;;;3.70;99.90;;;;;;5019702;28;20045;-76
2022/03/23 02:12:11;;;;;;;47.67;29.23;;;3.70;99.90;;;;;;5019322;28;20072;-76
2022/03/23 02:14:37;;;;;;;47.28;26.90;;;3.70;99.90;;;;;;5036014;28;20080;-76
2022/03/23 02:17:09;;;;;;;44.10;29.13;;;3.70;99.90;;;;;;5035954;28;20479;-76
2022/03/23 02:19:35;;;;;;;45.15;27.63;;;3.60;99.90;;;;;;5019271;28;20571;-76
2022/03/23 02:22:04;;;;;;;47.70;27.33;;;3.60;99.90;;;;;;5020298;28;20055;-76
2022/03/23 02:24:33;;;;;;;46.00;26.70;;;3.60;99.90;;;;;;5019358;28;20158;-76
2022/03/23 02:27:00;;;;;;;43.90;27.05;;;3.60;99.90;;;;;;5019157;28;20072;-76
2022/03/23 02:29:32;;;;;;;42.60;26.20;;;3.50;99.90;;;;;;5019814;28;20051;-76
2022/03/23 02:32:01;;;;;;;46.90;29.20;;;3.50;99.90;;;;;;5019442;28;20072;-76
2022/03/23 02:34:27;;;;;;;44.58;28.63;;;3.50;99.90;;;;;;5018979;28;20513;-76
2022/03/23 02:36:53;;;;;;;51.22;29.38;;;3.50;99.90;;;;;;5019440;28;20502;-76
2022/03/23 02:39:19;;;;;;;47.92;28.70;;;3.50;99.90;;;;;;5019152;28;20044;-77
2022/03/23 02:41:45;;;;;;;49.00;29.70;;;3.60;99.90;;;;;;5018981;28;20040;-76
2022/03/23 02:44:17;;;;;;;47.38;28.75;;;3.60;99.90;;;;;;5018340;28;20047;-77
2022/03/23 02:46:43;;;;;;;46.80;28.67;;;3.50;99.90;;;;;;5019127;28;20482;-76
2022/03/23 02:49:12;;;;;;;46.67;28.17;;;3.50;99.90;;;;;;5019122;28;20044;-76
2022/03/23 02:51:38;;;;;;;43.55;27.15;;;3.40;99.90;;;;;;5018755;28;20037;-76
2022/03/23 03:02:52;;;;;;;47.42;29.08;;;3.30;99.90;;;;;;5034497;28;20059;-76
2022/03/23 03:05:18;;;;;;;49.13;28.30;;;3.30;99.90;;;;;;5018763;28;20448;-76
2022/03/23 03:10:28;;;;;;;45.83;26.60;;;3.30;99.90;;;;;;5035029;28;20041;-75
2022/03/23 03:12:55;;;;;;;46.28;28.13;;;3.10;99.90;;;;;;5034737;28;20117;-77
2022/03/23 03:15:22;;;;;;;45.88;28.50;;;3.10;99.90;;;;;;5018621;28;20043;-76
2022/03/23 03:17:48;;;;;;;47.05;28.55;;;3.10;99.90;;;;;;5018689;28;20049;-76
2022/03/23 03:20:15;;;;;;;51.42;28.63;;;3.10;99.90;;;;;;5018971;28;20152;-76
2022/03/23 03:22:43;;;;;;;46.80;28.98;;;3.00;99.90;;;;;;5018135;28;20044;-76
2022/03/23 03:25:17;;;;;;;49.53;29.20;;;3.00;99.90;;;;;;5018486;28;20040;-76
2022/03/23 03:27:43;;;;;;;47.15;28.92;;;2.90;99.90;;;;;;5034538;28;20045;-76
2022/03/23 03:30:12;;;;;;;47.65;27.58;;;2.90;99.90;;;;;;5018340;28;20059;-76
2022/03/23 03:32:41;;;;;;;48.35;28.33;;;2.90;99.90;;;;;;5017806;28;20128;-76
2022/03/23 03:35:08;;;;;;;49.88;28.27;;;2.90;99.90;;;;;;5018136;28;20041;-76
2022/03/23 03:37:35;;;;;;;44.40;28.25;;;2.80;99.90;;;;;;5034643;28;20465;-76
2022/03/23 03:40:03;;;;;;;46.38;27.90;;;2.80;99.90;;;;;;5017756;28;20071;-76
2022/03/23 03:42:29;;;;;;;52.03;30.52;;;2.70;99.90;;;;;;5017806;28;20044;-76
2022/03/23 03:44:55;;;;;;;52.22;30.08;;;2.70;99.90;;;;;;5017970;28;20045;-76
2022/03/23 03:47:21;;;;;;;48.08;29.77;;;2.80;99.90;;;;;;5017511;28;20099;-76
2022/03/23 03:49:46;;;;;;;47.97;29.48;;;2.70;99.90;;;;;;5017767;28;20080;-76
2022/03/23 03:52:18;;;;;;;45.72;28.15;;;2.70;99.90;;;;;;5018112;28;20384;-76
2022/03/23 03:54:44;;;;;;;48.95;28.23;;;2.70;99.90;;;;;;5017389;28;20040;-76
2022/03/23 03:57:10;;;;;;;49.88;28.77;;;2.70;99.90;;;;;;5017843;28;20040;-76
2022/03/23 03:59:36;;;;;;;47.80;28.52;;;2.60;99.90;;;;;;5017861;28;20048;-76
2022/03/23 04:02:03;;;;;;;42.38;27.42;;;2.60;99.90;;;;;;5050689;28;20055;-76
2022/03/23 04:04:29;;;;;;;46.53;27.13;;;2.60;99.90;;;;;;5016743;28;20037;-76
2022/03/23 04:06:54;;;;;;;49.85;29.23;;;2.60;99.90;;;;;;5016675;28;20044;-76
2022/03/23 04:09:20;;;;;;;46.22;27.90;;;2.50;99.90;;;;;;5033738;28;20517;-76
2022/03/23 04:11:46;;;;;;;47.50;28.75;;;2.50;99.90;;;;;;5051074;28;20128;-76
2022/03/23 04:14:12;;;;;;;46.38;26.80;;;2.50;99.90;;;;;;5033756;28;20051;-76
2022/03/23 04:16:37;;;;;;;48.63;27.73;;;2.50;99.90;;;;;;5017499;28;20090;-76
2022/03/23 04:19:06;;;;;;;45.20;28.55;;;2.50;99.90;;;;;;5017185;28;20199;-76
2022/03/23 04:21:35;;;;;;;49.95;28.38;;;2.40;99.90;;;;;;5033432;28;20502;-76
2022/03/23 04:24:01;;;;;;;46.72;27.98;;;2.40;99.90;;;;;;5016736;28;20056;-76
2022/03/23 04:26:26;;;;;;;52.38;28.55;;;2.40;99.90;;;;;;5017349;28;20037;-76
2022/03/23 04:28:53;;;;;;;48.00;29.25;;;2.40;99.90;;;;;;5016769;28;20044;-76
2022/03/23 04:31:18;;;;;;;47.33;27.73;;;2.40;99.90;;;;;;5017435;28;20044;-76
2022/03/23 04:33:44;;;;;;;47.38;29.25;;;2.30;99.90;;;;;;5016786;28;20394;-76
2022/03/23 04:36:11;;;;;;;49.00;28.65;;;2.40;99.90;;;;;;5017147;28;20047;-76
2022/03/23 04:38:37;;;;;;;53.67;29.52;;;2.30;99.90;;;;;;5016670;28;20037;-76
2022/03/23 04:41:04;;;;;;;51.10;29.00;;;2.30;99.90;;;;;;5017036;28;20045;-76
2022/03/23 04:43:30;;;;;;;50.00;28.17;;;2.20;99.90;;;;;;5017008;28;20120;-76
2022/03/23 04:45:56;;;;;;;46.50;27.58;;;2.20;99.90;;;;;;5017198;28;20557;-76
2022/03/23 04:48:22;;;;;;;43.92;25.42;;;2.20;99.90;;;;;;5016995;28;20041;-75
2022/03/23 04:50:48;;;;;;;43.28;26.75;;;2.20;99.90;;;;;;5017131;28;20047;-76
2022/03/23 04:53:15;;;;;;;54.78;28.30;;;2.20;99.90;;;;;;5013279;28;20488;-76
2022/03/23 04:55:40;;;;;;;63.92;30.48;;;2.10;99.90;;;;;;5030647;28;20104;-76
2022/03/23 04:58:07;;;;;;;53.97;30.33;;;2.20;99.90;;;;;;5016863;28;20558;-77
2022/03/23 05:00:34;;;;;;;51.47;30.08;;;2.20;99.90;;;;;;5017100;28;20076;-76
2022/03/23 05:03:00;;;;;;;49.60;29.20;;;2.30;99.90;;;;;;5016737;28;20037;-76
2022/03/23 05:05:26;;;;;;;51.65;28.33;;;2.20;99.90;;;;;;5017183;28;20399;-76
2022/03/23 05:07:52;;;;;;;50.60;28.55;;;2.20;99.90;;;;;;5016519;28;20033;-76
2022/03/23 05:10:18;;;;;;;43.67;26.40;;;2.20;99.90;;;;;;5017002;28;20491;-76
2022/03/23 05:12:45;;;;;;;43.85;26.15;;;2.10;99.90;;;;;;5032722;28;20067;-75
2022/03/23 05:15:13;;;;;;;48.35;28.17;;;2.10;99.90;;;;;;5016604;28;20342;-76
2022/03/23 05:17:40;;;;;;;49.85;28.27;;;2.10;99.90;;;;;;5017168;28;20040;-76
2022/03/23 05:20:08;;;;;;;48.65;28.10;;;2.00;99.90;;;;;;5020161;28;20047;-76
2022/03/23 05:22:37;;;;;;;49.72;28.00;;;2.00;99.90;;;;;;5037377;28;20398;-76
2022/03/23 05:25:04;;;;;;;52.08;29.95;;;2.00;99.90;;;;;;5020432;28;20051;-75
2022/03/23 05:27:36;;;;;;;53.38;28.40;;;2.00;99.90;;;;;;5019876;28;20040;-76
2022/03/23 05:30:04;;;;;;;50.80;28.98;;;2.00;99.90;;;;;;5020363;28;20141;-76
2022/03/23 05:32:30;;;;;;;51.85;30.02;;;2.00;99.90;;;;;;5036515;28;20388;-76
2022/03/23 05:34:56;;;;;;;53.72;29.55;;;2.00;99.90;;;;;;5036554;28;20043;-76
2022/03/23 05:37:22;;;;;;;49.10;29.38;;;2.00;99.90;;;;;;5020079;28;20044;-76
2022/03/23 05:39:48;;;;;;;46.92;27.65;;;2.00;99.90;;;;;;5020064;28;20037;-76
2022/03/23 05:42:15;;;;;;;51.75;28.02;;;1.90;99.90;;;;;;5019930;28;20037;-76
2022/03/23 05:44:41;;;;;;;54.58;28.83;;;2.00;99.90;;;;;;5036492;28;20044;-75
2022/03/23 05:47:07;;;;;;;51.20;29.55;;;2.00;99.90;;;;;;5019996;28;20437;-76
2022/03/23 05:49:33;;;;;;;51.45;31.02;;;2.00;99.90;;;;;;5019898;28;20048;-76
2022/03/23 05:51:59;;;;;;;52.35;29.65;;;2.10;99.90;;;;;;5020069;28;20041;-76
2022/03/23 05:54:25;;;;;;;53.25;30.23;;;2.00;99.90;;;;;;5019800;28;20041;-76
2022/03/23 05:56:52;;;;;;;50.17;29.85;;;2.00;99.90;;;;;;5019800;28;20041;-76
2022/03/23 05:59:18;;;;;;;56.75;29.52;;;2.00;99.90;;;;;;5019766;28;20044;-75
2022/03/23 06:01:44;;;;;;;48.20;28.90;;;2.10;99.90;;;;;;5019471;28;20048;-77
2022/03/23 06:04:12;;;;;;;51.72;29.05;;;2.10;99.90;;;;;;5035685;28;20407;-76
2022/03/23 06:06:38;;;;;;;51.42;30.08;;;2.10;99.90;;;;;;5019997;28;20033;-76
2022/03/23 06:09:04;;;;;;;49.53;28.98;;;2.10;99.90;;;;;;5019629;28;20063;-76
2022/03/23 06:11:30;;;;;;;51.90;30.88;;;2.20;99.90;;;;;;5019797;28;20041;-76
2022/03/23 06:13:57;;;;;;;59.30;32.60;;;2.20;99.90;;;;;;5019338;28;20629;-76
2022/03/23 06:16:23;;;;;;;52.13;31.33;;;2.20;99.90;;;;;;5019243;28;20044;-76
2022/03/23 06:18:50;;;;;;;60.53;32.42;;;2.30;99.90;;;;;;5019287;28;20059;-76
2022/03/23 06:21:15;;;;;;;55.17;32.60;;;2.40;99.90;;;;;;5020004;28;20472;-76
2022/03/23 06:23:41;;;;;;;57.85;32.13;;;2.40;99.90;;;;;;5019308;28;20068;-76
2022/03/23 06:26:07;;;;;;;55.90;30.50;;;2.50;99.90;;;;;;5019358;28;20124;-76
2022/03/23 06:28:34;;;;;;;54.25;29.38;;;2.50;99.90;;;;;;5019379;28;20033;-76
2022/03/23 06:31:02;;;;;;;53.10;29.73;;;2.60;99.90;;;;;;5034559;28;20045;-76
2022/03/23 06:33:28;;;;;;;51.17;28.92;;;2.60;99.90;;;;;;5019272;28;20045;-76
2022/03/23 06:35:54;;;;;;;55.50;31.02;;;2.70;99.90;;;;;;5019454;28;20114;-76
2022/03/23 06:38:20;;;;;;;52.83;30.30;;;2.80;99.90;;;;;;5035414;28;20052;-76
2022/03/23 06:40:46;;;;;;;52.97;30.27;;;2.80;99.90;;;;;;5035262;28;20517;-75
2022/03/23 06:43:12;;;;;;;49.55;29.88;;;2.80;99.90;;;;;;5017302;28;20127;-76
2022/03/23 06:45:40;;;;;;;57.50;32.30;;;2.90;99.90;;;;;;5018992;28;20098;-76
2022/03/23 06:48:07;;;;;;;59.72;33.30;;;3.00;99.90;;;;;;5019224;28;20037;-76
2022/03/23 06:50:34;;;;;;;57.83;33.22;;;3.00;99.90;;;;;;5019048;28;20056;-75
2022/03/23 06:53:00;;;;;;;60.30;33.72;;;3.10;99.90;;;;;;5008701;28;20128;-76
2022/03/23 06:55:25;;;;;;;61.28;34.05;;;3.20;99.90;;;;;;4999577;28;20050;-76
2022/03/23 06:57:54;;;;;;;53.55;31.60;;;3.30;99.90;;;;;;5015182;28;20375;-78
2022/03/23 07:00:20;;;;;;;55.47;33.40;;;3.40;99.90;;;;;;5030450;28;20045;-75
2022/03/23 07:02:47;;;;;;;59.38;32.80;;;3.40;99.90;;;;;;5017600;28;20476;-75
2022/03/23 07:05:16;;;;;;;58.85;32.78;;;3.50;99.90;;;;;;5042387;28;20514;-79
2022/03/23 07:11:23;;;;;;;66.70;34.88;;;3.70;99.90;;;;;;5030675;28;20048;-80
2022/03/23 07:14:09;;;;;;;64.95;35.08;;;3.80;99.90;;;;;;5011294;28;20077;-80
2022/03/23 07:16:44;;;;;;;58.08;35.30;;;3.90;99.90;;;;;;5014088;28;20114;-80
2022/03/23 07:19:29;;;;;;;62.42;35.70;;;4.00;99.90;;;;;;5020653;28;20044;-80
2022/03/23 07:25:36;;;;;;;64.43;37.92;;;4.30;99.90;;;;;;5578787;22;20076;-80
2022/03/23 07:28:26;;;;;;;61.50;38.53;;;4.50;99.90;;;;;;5055380;28;20106;-80
2022/03/23 07:30:57;;;;;;;60.58;35.05;;;4.70;99.90;;;;;;5032372;28;20054;-78
2022/03/23 07:34:23;;;;;;;;;;;;;;;;;;;;;
2022/03/23 07:39:36;;;;;;;56.75;36.40;;;5.50;99.90;;;;;;5070177;28;20052;-77
2022/03/23 07:42:02;;;;;;;51.75;33.03;;;5.70;99.90;;;;;;5037828;28;20066;-77
2022/03/23 07:44:30;;;;;;;52.83;34.78;;;5.90;99.90;;;;;;5035498;28;20161;-78
2022/03/23 07:46:55;;;;;;;47.80;32.58;;;6.20;99.90;;;;;;5048567;28;20062;-77
2022/03/23 07:49:21;;;;;;;45.50;32.13;;;6.50;99.90;;;;;;5034345;28;20052;-77
2022/03/23 07:51:47;;;;;;;47.63;31.42;;;6.80;99.90;;;;;;5018082;28;20461;-77
2022/03/23 07:54:12;;;;;;;49.30;33.85;;;7.10;99.90;;;;;;5017830;28;20052;-77
2022/03/23 07:56:38;;;;;;;54.85;35.83;;;7.40;99.90;;;;;;5017921;28;20047;-77
2022/03/23 07:59:03;;;;;;;46.78;32.58;;;7.60;99.90;;;;;;5034111;28;20044;-77
2022/03/23 08:01:30;;;;;;;44.00;29.85;;;7.80;99.90;;;;;;5034655;28;20452;-77
2022/03/23 08:03:55;;;;;;;46.97;31.40;;;8.10;99.90;;;;;;5034226;28;20029;-77
2022/03/23 08:06:21;;;;;;;39.53;28.40;;;8.30;99.90;;;;;;5034321;28;20478;-77
2022/03/23 08:08:46;;;;;;;40.03;29.42;;;8.50;99.90;;;;;;5017423;28;20396;-77
2022/03/23 08:11:12;;;;;;;41.10;28.58;;;8.70;99.90;;;;;;5017710;28;20044;-77
2022/03/23 08:13:38;;;;;;;42.55;27.92;;;9.00;99.90;;;;;;5034053;28;20502;-77
2022/03/23 08:16:05;;;;;;;39.22;27.52;;;9.10;99.90;;;;;;5034046;28;20174;-77
2022/03/23 08:18:32;;;;;;;38.30;26.70;;;9.30;99.90;;;;;;5033483;28;20091;-77
2022/03/23 08:20:59;;;;;;;36.92;26.25;;;9.40;99.90;;;;;;5017383;28;20029;-77
2022/03/23 08:23:26;;;;;;;37.75;27.02;;;9.60;99.90;;;;;;5033515;28;20045;-77
2022/03/23 08:25:52;;;;;;;36.78;25.55;;;9.80;99.90;;;;;;5009050;28;20112;-78
2022/03/23 08:28:17;;;;;;;36.78;25.25;;;10.00;99.90;;;;;;5034400;28;20056;-77
2022/03/23 08:30:44;;;;;;;34.08;25.85;;;10.10;99.90;;;;;;5028576;28;20503;-78
2022/03/23 08:33:10;;;;;;;35.50;25.23;;;10.40;99.90;;;;;;5030927;28;20490;-77
2022/03/23 08:35:36;;;;;;;33.60;24.92;;;10.50;99.90;;;;;;5032362;28;20076;-77
2022/03/23 08:38:02;;;;;;;34.78;25.95;;;10.70;99.90;;;;;;5017064;28;20402;-79
2022/03/23 08:40:28;;;;;;;31.17;24.73;;;10.80;99.90;;;;;;5034062;28;20040;-79
2022/03/23 08:42:55;;;;;;;32.97;24.70;;;11.00;99.90;;;;;;5032519;28;20395;-79
2022/03/23 08:45:21;;;;;;;33.60;24.70;;;11.20;99.90;;;;;;5017110;28;20037;-79
2022/03/23 08:47:49;;;;;;;33.72;24.63;;;11.20;99.90;;;;;;5033662;28;20479;-79
2022/03/23 08:50:15;;;;;;;31.90;24.30;;;11.40;99.90;;;;;;5033819;28;20094;-79
2022/03/23 08:52:41;;;;;;;29.65;23.48;;;11.50;99.90;;;;;;5030614;28;20044;-79
2022/03/23 08:55:14;;;;;;;30.25;23.80;;;11.70;98.00;;;;;;5033393;28;20044;-79
2022/03/23 08:57:43;;;;;;;30.95;22.63;;;11.90;98.70;;;;;;5033006;28;20037;-79
2022/03/23 09:00:11;;;;;;;29.60;22.15;;;12.10;99.90;;;;;;5033716;28;20043;-79
2022/03/23 09:02:37;;;;;;;27.42;22.00;;;12.70;95.80;;;;;;5013579;28;20121;-79
2022/03/23 09:05:03;;;;;;;28.13;22.70;;;13.50;91.40;;;;;;5031941;28;20116;-79
2022/03/23 09:07:31;;;;;;;25.48;22.05;;;14.40;83.70;;;;;;5033276;28;20502;-79
2022/03/23 09:09:57;;;;;;;25.63;20.92;;;15.20;92.80;;;;;;5032886;28;20104;-77
2022/03/23 09:12:22;;;;;;;24.92;20.95;;;16.10;88.00;;;;;;5025786;28;20558;-78
2022/03/23 09:14:48;;;;;;;24.33;20.02;;;16.80;80.50;;;;;;5017189;28;20392;-78
2022/03/23 09:17:14;;;;;;;25.27;20.38;;;17.30;65.90;;;;;;5033273;28;20045;-78
2022/03/23 09:19:39;;;;;;;22.85;19.58;;;17.90;75.70;;;;;;5033264;28;20037;-78
2022/03/23 09:22:06;;;;;;;22.05;19.73;;;18.40;54.10;;;;;;5032894;28;20091;-78
2022/03/23 09:24:32;;;;;;;21.40;19.02;;;18.50;54.50;;;;;;5032102;28;20063;-78
2022/03/23 09:26:57;;;;;;;20.33;18.15;;;18.70;51.10;;;;;;5013839;28;20506;-79
2022/03/23 09:29:23;;;;;;;20.52;18.38;;;18.90;50.50;;;;;;5032522;28;20043;-79
2022/03/23 09:31:48;;;;;;;19.35;17.35;;;19.00;46.40;;;;;;5033660;28;20083;-79
2022/03/23 09:34:14;;;;;;;18.83;17.02;;;19.10;44.00;;;;;;5033782;28;20036;-79
2022/03/23 09:39:24;;;;;;;20.30;18.20;;;19.30;42.60;;;;;;5033302;28;20080;-79
2022/03/23 09:41:51;;;;;;;19.38;17.35;;;19.40;46.70;;;;;;5033335;28;20049;-79
2022/03/23 09:44:17;;;;;;;21.80;18.27;;;19.80;47.80;;;;;;5032730;28;20037;-79
2022/03/23 09:46:43;;;;;;;21.73;19.02;;;20.00;43.80;;;;;;5016707;28;20037;-78
2022/03/23 09:49:09;;;;;;;19.10;17.23;;;20.10;46.70;;;;;;5017639;28;20033;-81
2022/03/23 09:51:38;;;;;;;18.77;16.92;;;20.50;48.20;;;;;;5033905;28;20056;-77
2022/03/23 09:54:05;;;;;;;18.38;16.38;;;21.00;44.90;;;;;;4997661;28;20113;-79
2022/03/23 09:56:31;;;;;;;17.73;16.02;;;21.10;41.70;;;;;;5014038;28;20124;-77
2022/03/23 09:58:56;;;;;;;18.85;17.05;;;21.10;40.40;;;;;;5031748;28;20496;-77
2022/03/23 10:01:28;;;;;;;18.38;16.55;;;21.00;40.00;;;;;;5032775;28;20049;-77
2022/03/23 10:04:06;;;;;;;17.45;15.75;;;20.90;42.50;;;;;;5032353;28;20036;-77
2022/03/23 10:07:00;;;;;;;18.65;14.85;;;21.00;39.50;;;;;;5036114;28;20045;-78
2022/03/23 10:09:26;;;;;;;16.92;15.18;;;21.10;38.40;;;;;;5035889;28;20091;-75
2022/03/23 10:12:04;;;;;;;17.90;16.08;;;21.10;40.10;;;;;;5035765;28;20437;-78
2022/03/23 10:14:45;;;;;;;18.08;16.27;;;21.30;38.20;;;;;;5035868;28;20099;-77
2022/03/23 10:17:45;;;;;;;17.63;15.93;;;21.50;35.90;;;;;;5036147;28;20052;-77
2022/03/23 10:20:12;;;;;;;18.83;15.73;;;21.40;37.80;;;;;;5035040;28;20136;-75
2022/03/23 10:22:50;;;;;;;17.48;15.77;;;21.50;37.80;;;;;;5033877;28;20131;-75
2022/03/23 10:25:17;;;;;;;17.92;16.13;;;21.60;37.70;;;;;;5034414;28;20402;-75
2022/03/23 10:27:44;;;;;;;18.15;16.20;;;22.00;39.90;;;;;;5035952;28;20071;-75
2022/03/23 10:30:09;;;;;;;17.95;16.08;;;22.40;40.10;;;;;;5036004;28;20040;-74
2022/03/23 10:32:37;;;;;;;21.33;16.02;;;22.80;37.00;;;;;;5019219;28;20447;-74
2022/03/23 10:35:09;;;;;;;18.25;16.45;;;23.00;33.90;;;;;;5035876;28;20444;-74
2022/03/23 10:37:35;;;;;;;17.85;16.15;;;22.90;33.30;;;;;;5033068;28;20391;-78
2022/03/23 10:40:04;;;;;;;18.10;16.35;;;22.70;33.90;;;;;;5033039;28;20063;-76
2022/03/23 10:42:35;;;;;;;17.27;15.57;;;22.70;34.20;;;;;;5033490;28;20051;-76
2022/03/23 10:45:21;;;;;;;18.63;16.75;;;22.70;34.40;;;;;;5034629;28;20555;-76
2022/03/23 10:47:48;;;;;;;17.48;15.77;;;22.80;36.50;;;;;;5018717;28;20074;-76
2022/03/23 10:50:16;;;;;;;17.52;14.98;;;23.10;33.40;;;;;;5035399;28;20036;-75
2022/03/23 10:52:54;;;;;;;16.70;14.98;;;23.10;32.80;;;;;;5035208;28;20040;-76
2022/03/23 10:55:21;;;;;;;16.95;15.30;;;22.90;34.80;;;;;;5019029;28;20037;-76
2022/03/23 10:57:50;;;;;;;15.85;14.20;;;23.00;34.00;;;;;;5035094;28;20487;-76
2022/03/23 11:00:17;;;;;;;15.02;13.63;;;23.10;33.20;;;;;;5033340;28;20120;-76
2022/03/23 11:02:47;;;;;;;15.18;13.73;;;23.20;32.60;;;;;;5029129;28;20135;-76
2022/03/23 11:05:35;;;;;;;16.02;13.90;;;23.40;34.00;;;;;;5030530;28;20087;-79
2022/03/23 11:08:10;;;;;;;15.13;13.52;;;23.60;36.00;;;;;;5033595;28;20119;-77
2022/03/23 11:16:09;;;;;;;15.20;12.98;;;24.20;33.80;;;;;;5030233;28;20098;-77
2022/03/23 11:18:34;;;;;;;14.45;13.15;;;24.30;33.30;;;;;;5018104;28;20475;-76
2022/03/23 11:21:00;;;;;;;16.30;13.90;;;24.70;32.90;;;;;;5034142;28;20044;-77
2022/03/23 11:23:36;;;;;;;15.18;13.45;;;25.00;31.70;;;;;;5033323;28;20041;-77
2022/03/23 11:26:11;;;;;;;15.93;14.32;;;24.90;30.90;;;;;;5034438;28;20037;-77
2022/03/23 11:28:38;;;;;;;14.82;13.32;;;24.70;31.30;;;;;;5034169;28;20029;-77
2022/03/23 11:31:11;;;;;;;16.90;14.57;;;24.60;33.60;;;;;;5033824;28;20041;-77
2022/03/23 11:33:38;;;;;;;15.98;14.40;;;24.90;31.10;;;;;;5024916;28;20073;-77
2022/03/23 11:36:08;;;;;;;15.40;13.80;;;24.70;31.60;;;;;;5017922;28;20407;-77
2022/03/23 11:38:34;;;;;;;15.13;12.38;;;24.90;33.20;;;;;;5032960;28;20063;-77
2022/03/23 11:41:00;;;;;;;14.27;12.35;;;25.00;31.50;;;;;;5034870;28;20572;-76
2022/03/23 11:43:29;;;;;;;18.45;14.43;;;25.20;32.30;;;;;;5033407;28;20095;-77
2022/03/23 11:45:56;;;;;;;15.05;13.18;;;25.40;32.20;;;;;;5034125;28;20037;-76
2022/03/23 11:48:46;;;;;;;21.05;14.10;;;25.40;30.80;;;;;;5032851;28;20090;-77
2022/03/23 11:51:16;;;;;;;13.93;12.23;;;25.30;32.30;;;;;;5032717;28;20124;-77
2022/03/23 11:53:58;;;;;;;15.57;12.43;;;25.50;32.10;;;;;;5017894;28;20067;-77
2022/03/23 11:56:46;;;;;;;15.65;12.25;;;25.70;31.80;;;;;;5033295;28;20037;-77
2022/03/23 11:59:26;;;;;;;13.50;12.02;;;25.60;32.50;;;;;;5008667;28;20055;-77
2022/03/23 12:01:52;;;;;;;17.80;12.68;;;25.80;32.40;;;;;;5032326;28;20049;-76
2022/03/23 12:04:21;;;;;;;14.57;12.68;;;26.10;32.60;;;;;;5032360;28;20069;-77
2022/03/23 12:07:03;;;;;;;16.08;12.68;;;26.40;31.50;;;;;;5050626;28;20407;-77
2022/03/23 12:09:47;;;;;;;17.15;13.38;;;26.30;31.30;;;;;;5030473;28;20071;-77
2022/03/23 12:12:30;;;;;;;14.98;13.20;;;26.30;32.40;;;;;;5014939;28;20403;-77
2022/03/23 12:15:23;;;;;;;13.93;10.90;;;26.30;33.20;;;;;;5033404;28;20051;-77
2022/03/23 12:17:55;;;;;;;14.52;11.02;;;26.60;30.00;;;;;;5027899;28;20067;-77
2022/03/23 12:20:32;;;;;;;15.30;12.10;;;26.30;30.50;;;;;;5033050;28;20075;-77
2022/03/23 12:23:43;;;;;;;15.18;11.85;;;26.00;30.50;;;;;;5031652;28;20076;-77
2022/03/23 12:26:26;;;;;;;17.60;12.00;;;25.90;31.20;;;;;;5030581;28;20068;-77
2022/03/23 12:29:01;;;;;;;15.27;11.00;;;25.90;30.90;;;;;;5032446;28;20044;-76
2022/03/23 12:31:37;;;;;;;14.88;10.68;;;25.80;30.60;;;;;;5032991;28;20060;-77
2022/03/23 12:34:18;;;;;;;14.20;10.25;;;25.70;31.10;;;;;;5016940;28;20043;-77
2022/03/23 12:36:58;;;;;;;13.20;9.13;;;25.50;30.30;;;;;;5013816;28;20127;-76
2022/03/23 12:39:31;;;;;;;13.45;10.02;;;25.20;29.90;;;;;;5032663;28;20044;-77
2022/03/23 12:42:00;;;;;;;14.38;7.18;;;25.10;30.60;;;;;;5032088;28;20045;-77
2022/03/23 12:44:34;;;;;;;12.02;7.72;;;25.10;30.80;;;;;;5016529;28;20037;-77
2022/03/23 12:47:20;;;;;;;15.48;7.63;;;25.10;30.20;;;;;;5029870;28;20040;-77
2022/03/23 12:58:25;;;;;;;15.48;8.13;;;25.40;31.80;;;;;;5030074;28;20044;-77
2022/03/23 13:00:54;;;;;;;13.52;9.02;;;26.00;31.90;;;;;;5033700;28;20396;-76
2022/03/23 13:03:19;;;;;;;12.77;9.02;;;26.20;30.10;;;;;;5032374;28;20049;-76
2022/03/23 13:05:54;;;;;;;16.58;9.15;;;26.20;30.70;;;;;;5031478;28;20044;-76
2022/03/23 13:08:38;;;;;;;16.92;10.13;;;26.20;30.10;;;;;;5013809;28;20037;-76
2022/03/23 13:11:08;;;;;;;15.48;10.48;;;25.90;30.70;;;;;;5013378;28;20047;-76
2022/03/23 13:13:38;;;;;;;18.75;11.10;;;25.80;30.20;;;;;;5027727;28;20052;-77
2022/03/23 13:16:12;;;;;;;18.25;10.98;;;25.70;31.10;;;;;;5033526;28;20051;-76
2022/03/23 13:18:38;;;;;;;16.20;11.25;;;26.00;31.30;;;;;;5033715;28;20545;-76
2022/03/23 13:21:13;;;;;;;16.40;10.65;;;26.10;30.00;;;;;;5033525;28;20041;-76
2022/03/23 13:23:43;;;;;;;17.10;10.95;;;26.20;29.70;;;;;;5031429;28;20045;-77